createdAt,value
2023-02-13T00:00:19.456Z,102165.16
2023-02-13T00:01:42.324Z,102162.44
2023-02-13T00:02:45.306Z,102158.52
2023-02-13T00:03:48.265Z,102159.07
2023-02-13T00:04:51.124Z,102161.50
2023-02-13T00:05:54.176Z,102157.52
2023-02-13T00:06:57.122Z,102157.75
2023-02-13T00:07:59.959Z,102154.14
2023-02-13T00:09:03.743Z,102157.02
2023-02-13T00:10:08.938Z,102152.90
2023-02-13T00:11:12.864Z,102154.70
2023-02-13T00:12:15.675Z,102155.84
2023-02-13T00:13:18.572Z,102159.23
2023-02-13T00:14:21.556Z,102170.07
2023-02-13T00:15:24.439Z,102170.04
2023-02-13T00:16:27.367Z,102167.63
2023-02-13T00:17:30.566Z,102169.59
2023-02-13T00:18:36.746Z,102170.56
2023-02-13T00:19:40.041Z,102172.17
2023-02-13T00:20:43.248Z,102169.48
2023-02-13T00:21:46.081Z,102166.58
2023-02-13T00:22:49.047Z,102163.34
2023-02-13T00:23:51.876Z,102156.81
2023-02-13T00:24:54.740Z,102157.61
2023-02-13T00:25:58.495Z,102157.11
2023-02-13T00:27:01.934Z,102152.66
2023-02-13T00:28:04.910Z,102156.04
2023-02-13T00:29:08.514Z,102152.42
2023-02-13T00:30:11.988Z,102155.77
2023-02-13T00:31:17.638Z,102155.07
2023-02-13T00:32:20.637Z,102158.09
2023-02-13T00:33:23.542Z,102156.27
2023-02-13T00:34:26.417Z,102153.32
2023-02-13T00:35:29.497Z,102154.48
2023-02-13T00:36:32.445Z,102151.61
2023-02-13T00:37:35.479Z,102148.66
2023-02-13T00:38:40.354Z,102149.23
2023-02-13T00:39:43.269Z,102142.30
2023-02-13T00:40:46.212Z,102145.35
2023-02-13T00:41:49.111Z,102146.45
2023-02-13T00:42:52.014Z,102141.33
2023-02-13T00:43:54.901Z,102144.52
2023-02-13T00:44:58.802Z,102149.59
2023-02-13T00:46:02.506Z,102153.98
2023-02-13T00:47:05.437Z,102154.44
2023-02-13T00:48:08.337Z,102151.10
2023-02-13T00:49:11.937Z,102159.10
2023-02-13T00:50:14.868Z,102155.58
2023-02-13T00:51:17.786Z,102153.88
2023-02-13T00:52:20.656Z,102156.65
2023-02-13T00:53:25.469Z,102158.11
2023-02-13T00:54:28.320Z,102158.15
2023-02-13T00:55:31.376Z,102160.02
2023-02-13T00:56:34.948Z,102159.63
2023-02-13T00:57:37.925Z,102155.68
2023-02-13T00:58:40.907Z,102156.59
2023-02-13T00:59:43.775Z,102154.95
2023-02-13T01:00:47.675Z,102159.06
2023-02-13T01:01:50.623Z,102158.67
2023-02-13T01:02:53.567Z,102151.34
2023-02-13T01:03:56.652Z,102150.86
2023-02-13T01:04:59.509Z,102148.21
2023-02-13T01:06:02.363Z,102148.45
2023-02-13T01:07:05.328Z,102149.25
2023-02-13T01:08:09.049Z,102150.25
2023-02-13T01:09:12.190Z,102150.45
2023-02-13T01:10:15.136Z,102147.61
2023-02-13T01:11:19.462Z,102145.33
2023-02-13T01:12:22.424Z,102141.72
2023-02-13T01:13:25.827Z,102140.92
2023-02-13T01:14:30.006Z,102143.27
2023-02-13T01:15:33.586Z,102139.20
2023-02-13T01:16:36.776Z,102141.17
2023-02-13T01:17:39.902Z,102138.66
2023-02-13T01:18:42.802Z,102138.92
2023-02-13T01:19:45.673Z,102141.27
2023-02-13T01:21:23.446Z,102142.08
2023-02-13T01:22:29.183Z,102142.64
2023-02-13T01:23:35.090Z,102142.24
2023-02-13T01:24:37.965Z,102142.98
2023-02-13T01:25:43.677Z,102143.41
2023-02-13T01:26:46.625Z,102144.59
2023-02-13T01:27:49.576Z,102139.73
2023-02-13T01:28:54.818Z,102139.77
2023-02-13T01:29:57.695Z,102142.41
2023-02-13T01:31:01.275Z,102140.27
2023-02-13T01:32:05.319Z,102137.39
2023-02-13T01:33:12.409Z,102139.77
2023-02-13T01:34:15.388Z,102139.66
2023-02-13T01:35:18.432Z,102141.06
2023-02-13T01:36:21.398Z,102140.49
2023-02-13T01:37:24.259Z,102138.52
2023-02-13T01:38:28.316Z,102137.48
2023-02-13T01:39:31.359Z,102134.44
2023-02-13T01:40:34.232Z,102135.47
2023-02-13T01:41:37.103Z,102127.64
2023-02-13T01:42:40.566Z,102132.73
2023-02-13T01:43:53.695Z,102129.27
2023-02-13T01:45:17.555Z,102131.25
2023-02-13T01:46:29.122Z,102129.08
2023-02-13T01:47:40.532Z,102131.13
2023-02-13T01:48:43.739Z,102130.25
2023-02-13T01:49:47.999Z,102131.09
2023-02-13T01:50:53.531Z,102130.73
2023-02-13T01:51:57.096Z,102136.74
2023-02-13T01:53:10.981Z,102136.77
2023-02-13T01:54:26.236Z,102136.98
2023-02-13T01:55:31.577Z,102136.10
2023-02-13T01:56:46.008Z,102132.19
2023-02-13T01:57:55.002Z,102136.61
2023-02-13T01:59:02.727Z,102135.37
2023-02-13T02:00:09.492Z,102137.01
2023-02-13T02:01:24.293Z,102137.85
2023-02-13T02:02:29.242Z,102136.11
2023-02-13T02:03:40.005Z,102142.77
2023-02-13T02:04:48.413Z,102137.48
2023-02-13T02:05:56.544Z,102138.72
2023-02-13T02:07:07.222Z,102137.71
2023-02-13T02:08:14.316Z,102138.17
2023-02-13T02:09:20.684Z,102136.20
2023-02-13T02:10:24.391Z,102133.56
2023-02-13T02:11:36.190Z,102131.39
2023-02-13T02:12:55.602Z,102132.93
2023-02-13T02:13:59.215Z,102134.84
2023-02-13T02:15:09.156Z,102134.27
2023-02-13T02:16:13.666Z,102134.80
2023-02-13T02:17:17.827Z,102135.44
2023-02-13T02:18:23.415Z,102136.04
2023-02-13T02:19:49.633Z,102138.75
2023-02-13T02:21:30.988Z,102135.80
2023-02-13T02:23:03.361Z,102134.52
2023-02-13T02:24:40.673Z,102136.64
2023-02-13T02:26:02.532Z,102138.67
2023-02-13T02:27:19.039Z,102142.23
2023-02-13T02:28:31.582Z,102140.15
2023-02-13T02:29:49.295Z,102138.98
2023-02-13T02:31:10.276Z,102133.33
2023-02-13T02:32:19.048Z,102139.31
2023-02-13T02:33:40.555Z,102130.38
2023-02-13T02:35:02.752Z,102130.71
2023-02-13T02:36:36.945Z,102125.89
2023-02-13T02:38:00.591Z,102127.33
2023-02-13T02:39:21.953Z,102126.59
2023-02-13T02:40:33.847Z,102122.71
2023-02-13T02:41:45.592Z,102128.04
2023-02-13T02:43:04.605Z,102127.55
2023-02-13T02:44:18.568Z,102130.78
2023-02-13T02:45:28.885Z,102128.59
2023-02-13T02:46:39.650Z,102127.99
2023-02-13T02:48:11.236Z,102134.21
2023-02-13T02:49:46.550Z,102133.95
2023-02-13T02:51:01.611Z,102137.16
2023-02-13T02:52:44.886Z,102142.31
2023-02-13T02:53:51.599Z,102144.80
2023-02-13T02:55:07.277Z,102145.30
2023-02-13T02:56:40.411Z,102146.30
2023-02-13T02:58:20.002Z,102147.24
2023-02-13T02:59:44.101Z,102145.64
2023-02-13T03:01:09.122Z,102146.73
2023-02-13T03:02:32.082Z,102148.58
2023-02-13T03:03:54.939Z,102146.20
2023-02-13T03:05:20.046Z,102145.25
2023-02-13T03:06:30.105Z,102145.67
2023-02-13T03:07:33.565Z,102151.60
2023-02-13T03:09:03.469Z,102148.25
2023-02-13T03:10:28.805Z,102152.91
2023-02-13T03:11:51.087Z,102150.23
2023-02-13T03:13:17.534Z,102151.54
2023-02-13T03:14:23.164Z,102150.06
2023-02-13T03:15:27.440Z,102145.86
2023-02-13T03:16:49.101Z,102147.45
2023-02-13T03:18:11.258Z,102147.67
2023-02-13T03:19:46.981Z,102147.70
2023-02-13T03:21:17.732Z,102152.40
2023-02-13T03:22:35.864Z,102149.79
2023-02-13T03:23:48.657Z,102148.88
2023-02-13T03:25:03.512Z,102151.06
2023-02-13T03:26:46.316Z,102148.30
2023-02-13T03:28:25.739Z,102145.21
2023-02-13T03:30:00.503Z,102147.27
2023-02-13T03:31:46.719Z,102147.02
2023-02-13T03:33:26.325Z,102149.11
2023-02-13T03:34:56.853Z,102143.52
2023-02-13T03:36:35.193Z,102143.23
2023-02-13T03:37:56.569Z,102136.71
2023-02-13T03:39:24.065Z,102138.81
2023-02-13T03:40:36.646Z,102143.17
2023-02-13T03:41:50.939Z,102141.46
2023-02-13T03:43:02.026Z,102143.37
2023-02-13T03:44:18.327Z,102144.07
2023-02-13T03:45:47.980Z,102143.83
2023-02-13T03:46:53.641Z,102147.38
2023-02-13T03:47:58.905Z,102143.77
2023-02-13T03:49:25.192Z,102142.65
2023-02-13T03:50:28.949Z,102147.22
2023-02-13T03:51:45.060Z,102145.39
2023-02-13T03:52:47.853Z,102137.66
2023-02-13T03:53:57.441Z,102142.40
2023-02-13T03:55:23.755Z,102141.16
2023-02-13T03:56:48.035Z,102138.21
2023-02-13T03:58:15.106Z,102135.96
2023-02-13T03:59:30.333Z,102134.21
2023-02-13T04:00:40.267Z,102137.29
2023-02-13T04:02:13.668Z,102138.13
2023-02-13T04:03:25.643Z,102137.19
2023-02-13T04:04:39.683Z,102134.40
2023-02-13T04:05:47.163Z,102130.71
2023-02-13T04:07:07.158Z,102126.42
2023-02-13T04:08:10.437Z,102129.83
2023-02-13T04:09:13.390Z,102130.30
2023-02-13T04:10:18.398Z,102132.55
2023-02-13T04:11:30.629Z,102134.34
2023-02-13T04:12:40.704Z,102135.27
2023-02-13T04:14:21.959Z,102132.30
2023-02-13T04:15:50.365Z,102130.00
2023-02-13T04:17:03.673Z,102126.15
2023-02-13T04:18:20.952Z,102130.64
2023-02-13T04:19:26.600Z,102136.90
2023-02-13T04:20:32.225Z,102135.29
2023-02-13T04:21:37.911Z,102133.98
2023-02-13T04:22:48.244Z,102133.61
2023-02-13T04:23:51.114Z,102131.80
2023-02-13T04:24:54.166Z,102133.74
2023-02-13T04:25:57.837Z,102133.52
2023-02-13T04:27:00.875Z,102138.11
2023-02-13T04:28:04.221Z,102137.27
2023-02-13T04:29:08.524Z,102135.02
2023-02-13T04:30:12.186Z,102137.59
2023-02-13T04:31:16.112Z,102139.39
2023-02-13T04:32:19.117Z,102134.74
2023-02-13T04:33:22.064Z,102135.16
2023-02-13T04:34:25.228Z,102139.19
2023-02-13T04:35:28.479Z,102141.66
2023-02-13T04:36:31.556Z,102138.55
2023-02-13T04:37:34.448Z,102137.61
2023-02-13T04:38:37.345Z,102132.41
2023-02-13T04:39:40.212Z,102134.39
2023-02-13T04:40:43.045Z,102134.96
2023-02-13T04:41:45.887Z,102133.66
2023-02-13T04:42:49.593Z,102133.02
2023-02-13T04:43:52.631Z,102131.91
2023-02-13T04:44:55.460Z,102133.25
2023-02-13T04:45:58.400Z,102132.41
2023-02-13T04:47:01.323Z,102136.40
2023-02-13T04:48:04.305Z,102135.43
2023-02-13T04:49:07.509Z,102133.13
2023-02-13T04:50:10.556Z,102134.76
2023-02-13T04:51:13.511Z,102129.36
2023-02-13T04:52:16.456Z,102130.20
2023-02-13T04:53:19.362Z,102130.77
2023-02-13T04:54:22.205Z,102127.17
2023-02-13T04:55:26.422Z,102126.15
2023-02-13T04:56:29.344Z,102128.89
2023-02-13T04:57:32.230Z,102128.60
2023-02-13T04:58:35.168Z,102130.38
2023-02-13T04:59:38.050Z,102131.38
2023-02-13T05:00:41.135Z,102131.08
2023-02-13T05:01:44.201Z,102136.84
2023-02-13T05:02:47.266Z,102133.55
2023-02-13T05:03:50.214Z,102130.67
2023-02-13T05:04:53.081Z,102132.69
2023-02-13T05:05:55.929Z,102133.27
2023-02-13T05:06:58.911Z,102130.12
2023-02-13T05:08:02.388Z,102129.55
2023-02-13T05:09:05.318Z,102127.67
2023-02-13T05:10:09.904Z,102128.34
2023-02-13T05:11:12.801Z,102127.77
2023-02-13T05:12:15.860Z,102125.39
2023-02-13T05:13:21.723Z,102127.53
2023-02-13T05:14:24.617Z,102122.92
2023-02-13T05:15:27.608Z,102123.08
2023-02-13T05:16:30.517Z,102126.73
2023-02-13T05:17:33.472Z,102126.23
2023-02-13T05:18:36.428Z,102124.42
2023-02-13T05:19:39.300Z,102122.77
2023-02-13T05:20:42.657Z,102121.73
2023-02-13T05:22:04.589Z,102124.19
2023-02-13T05:23:22.751Z,102126.70
2023-02-13T05:24:25.834Z,102128.67
2023-02-13T05:25:28.679Z,102131.23
2023-02-13T05:26:31.640Z,102128.24
2023-02-13T05:27:34.488Z,102134.95
2023-02-13T05:28:56.494Z,102135.02
2023-02-13T05:29:59.678Z,102134.05
2023-02-13T05:31:03.020Z,102130.20
2023-02-13T05:32:06.183Z,102134.09
2023-02-13T05:33:09.084Z,102134.10
2023-02-13T05:34:11.960Z,102128.35
2023-02-13T05:35:15.017Z,102130.80
2023-02-13T05:36:17.995Z,102134.55
2023-02-13T05:37:20.854Z,102136.79
2023-02-13T05:38:23.814Z,102138.20
2023-02-13T05:39:26.712Z,102140.10
2023-02-13T05:40:29.570Z,102140.17
2023-02-13T05:41:32.600Z,102140.34
2023-02-13T05:42:35.520Z,102138.16
2023-02-13T05:43:38.331Z,102140.87
2023-02-13T05:44:41.170Z,102136.92
2023-02-13T05:45:44.062Z,102140.20
2023-02-13T05:46:48.247Z,102143.48
2023-02-13T05:47:51.177Z,102145.50
2023-02-13T05:48:54.087Z,102147.02
2023-02-13T05:49:56.917Z,102144.11
2023-02-13T05:50:59.926Z,102145.85
2023-02-13T05:52:02.850Z,102148.23
2023-02-13T05:53:05.690Z,102145.55
2023-02-13T05:54:09.063Z,102149.47
2023-02-13T05:55:11.944Z,102153.22
2023-02-13T05:56:14.803Z,102152.89
2023-02-13T05:57:17.650Z,102158.65
2023-02-13T05:58:21.899Z,102157.41
2023-02-13T05:59:24.722Z,102160.75
2023-02-13T06:00:27.653Z,102161.57
2023-02-13T06:01:30.526Z,102156.45
2023-02-13T06:02:33.603Z,102157.31
2023-02-13T06:03:36.565Z,102158.35
2023-02-13T06:04:39.903Z,102161.66
2023-02-13T06:05:42.739Z,102158.45
2023-02-13T06:06:45.673Z,102159.75
2023-02-13T06:07:48.500Z,102163.00
2023-02-13T06:08:52.018Z,102161.89
2023-02-13T06:09:54.887Z,102160.19
2023-02-13T06:10:58.022Z,102159.71
2023-02-13T06:12:01.383Z,102158.14
2023-02-13T06:13:04.251Z,102162.22
2023-02-13T06:14:07.143Z,102155.09
2023-02-13T06:15:10.070Z,102154.75
2023-02-13T06:16:13.156Z,102160.02
2023-02-13T06:17:16.032Z,102158.27
2023-02-13T06:18:19.064Z,102157.40
2023-02-13T06:19:21.951Z,102157.27
2023-02-13T06:20:24.821Z,102157.64
2023-02-13T06:21:27.916Z,102159.11
2023-02-13T06:22:30.930Z,102157.70
2023-02-13T06:23:33.910Z,102158.02
2023-02-13T06:24:36.731Z,102151.61
2023-02-13T06:25:40.009Z,102148.30
2023-02-13T06:26:42.956Z,102146.61
2023-02-13T06:27:46.692Z,102150.91
2023-02-13T06:28:49.978Z,102152.78
2023-02-13T06:29:52.871Z,102150.57
2023-02-13T06:30:56.311Z,102156.77
2023-02-13T06:32:00.013Z,102157.70
2023-02-13T06:33:03.010Z,102160.18
2023-02-13T06:34:05.873Z,102160.31
2023-02-13T06:35:09.314Z,102165.51
2023-02-13T06:36:12.163Z,102164.33
2023-02-13T06:37:15.005Z,102160.05
2023-02-13T06:38:19.300Z,102158.37
2023-02-13T06:39:22.179Z,102162.08
2023-02-13T06:40:25.165Z,102165.07
2023-02-13T06:41:28.051Z,102163.75
2023-02-13T06:42:30.949Z,102165.66
2023-02-13T06:43:33.828Z,102163.92
2023-02-13T06:44:36.693Z,102166.70
2023-02-13T06:45:39.665Z,102165.66
2023-02-13T06:46:42.656Z,102164.20
2023-02-13T06:47:48.110Z,102166.57
2023-02-13T06:48:51.008Z,102168.97
2023-02-13T06:49:53.830Z,102168.02
2023-02-13T06:50:56.973Z,102166.91
2023-02-13T06:52:00.105Z,102164.14
2023-02-13T06:53:03.188Z,102168.13
2023-02-13T06:54:06.391Z,102169.63
2023-02-13T06:55:09.213Z,102173.55
2023-02-13T06:56:12.109Z,102172.36
2023-02-13T06:57:15.787Z,102172.10
2023-02-13T06:58:19.875Z,102176.08
2023-02-13T06:59:22.758Z,102177.41
2023-02-13T07:00:27.189Z,102177.14
2023-02-13T07:01:30.282Z,102178.63
2023-02-13T07:02:33.275Z,102178.27
2023-02-13T07:03:36.183Z,102181.45
2023-02-13T07:04:39.539Z,102178.98
2023-02-13T07:05:44.008Z,102179.05
2023-02-13T07:06:47.443Z,102181.36
2023-02-13T07:07:50.250Z,102182.89
2023-02-13T07:08:56.105Z,102178.75
2023-02-13T07:09:59.038Z,102178.00
2023-02-13T07:11:01.946Z,102176.18
2023-02-13T07:12:05.745Z,102172.79
2023-02-13T07:13:10.077Z,102169.77
2023-02-13T07:14:13.009Z,102169.18
2023-02-13T07:15:15.960Z,102169.98
2023-02-13T07:16:19.189Z,102165.81
2023-02-13T07:17:22.104Z,102164.02
2023-02-13T07:18:24.981Z,102161.94
2023-02-13T07:19:27.869Z,102165.02
2023-02-13T07:20:30.928Z,102157.64
2023-02-13T07:21:33.994Z,102161.25
2023-02-13T07:22:36.912Z,102161.35
2023-02-13T07:23:40.138Z,102161.15
2023-02-13T07:24:43.051Z,102161.40
2023-02-13T07:25:45.906Z,102161.88
2023-02-13T07:26:48.742Z,102161.48
2023-02-13T07:27:52.159Z,102161.15
2023-02-13T07:29:10.239Z,102162.45
2023-02-13T07:30:14.533Z,102167.20
2023-02-13T07:31:17.674Z,102166.91
2023-02-13T07:32:20.694Z,102166.64
2023-02-13T07:33:24.389Z,102167.69
2023-02-13T07:34:27.370Z,102170.90
2023-02-13T07:35:30.488Z,102167.97
2023-02-13T07:36:33.723Z,102172.62
2023-02-13T07:37:36.591Z,102170.70
2023-02-13T07:38:39.432Z,102169.02
2023-02-13T07:39:42.280Z,102170.09
2023-02-13T07:40:45.585Z,102172.40
2023-02-13T07:41:48.499Z,102172.68
2023-02-13T07:42:52.439Z,102172.02
2023-02-13T07:43:55.328Z,102176.47
2023-02-13T07:44:58.877Z,102175.52
2023-02-13T07:46:04.385Z,102178.68
2023-02-13T07:47:07.380Z,102179.79
2023-02-13T07:48:10.270Z,102179.95
2023-02-13T07:49:13.470Z,102174.70
2023-02-13T07:50:16.353Z,102174.80
2023-02-13T07:51:19.355Z,102175.16
2023-02-13T07:52:22.272Z,102175.16
2023-02-13T07:53:25.519Z,102172.70
2023-02-13T07:54:28.477Z,102173.37
2023-02-13T07:55:32.784Z,102167.45
2023-02-13T07:56:35.834Z,102166.73
2023-02-13T07:57:38.774Z,102164.13
2023-02-13T07:58:41.722Z,102162.16
2023-02-13T07:59:45.454Z,102164.11
2023-02-13T08:00:48.571Z,102161.65
2023-02-13T08:01:51.692Z,102162.39
2023-02-13T08:02:54.691Z,102163.35
2023-02-13T08:03:57.722Z,102166.02
2023-02-13T08:05:00.585Z,102162.62
2023-02-13T08:06:04.408Z,102159.98
2023-02-13T08:07:07.763Z,102163.76
2023-02-13T08:08:10.615Z,102158.77
2023-02-13T08:09:41.032Z,102158.33
2023-02-13T08:11:02.728Z,102158.83
2023-02-13T08:12:08.512Z,102164.59
2023-02-13T08:13:14.030Z,102163.11
2023-02-13T08:14:16.926Z,102159.34
2023-02-13T08:15:19.853Z,102156.47
2023-02-13T08:16:23.075Z,102156.84
2023-02-13T08:17:25.979Z,102157.80
2023-02-13T08:18:28.946Z,102159.17
2023-02-13T08:19:31.859Z,102158.45
2023-02-13T08:20:34.959Z,102157.59
2023-02-13T08:21:38.360Z,102158.05
2023-02-13T08:22:41.718Z,102156.83
2023-02-13T08:23:44.723Z,102156.41
2023-02-13T08:24:47.652Z,102152.77
2023-02-13T08:25:50.543Z,102139.14
2023-02-13T08:26:53.423Z,102148.29
2023-02-13T08:27:56.603Z,102144.21
2023-02-13T08:28:59.940Z,102146.34
2023-02-13T08:30:04.415Z,102146.86
2023-02-13T08:31:12.280Z,102138.07
2023-02-13T08:32:15.620Z,102147.05
2023-02-13T08:33:18.874Z,102141.44
2023-02-13T08:34:21.717Z,102146.88
2023-02-13T08:35:26.968Z,102143.32
2023-02-13T08:36:31.080Z,102143.39
2023-02-13T08:37:34.118Z,102144.83
2023-02-13T08:38:37.048Z,102132.16
2023-02-13T08:39:39.929Z,102136.23
2023-02-13T08:40:42.783Z,102129.77
2023-02-13T08:41:45.649Z,102139.05
2023-02-13T08:42:48.491Z,102141.94
2023-02-13T08:43:51.461Z,102143.55
2023-02-13T08:44:54.365Z,102146.70
2023-02-13T08:46:01.197Z,102147.46
2023-02-13T08:47:04.273Z,102146.67
2023-02-13T08:48:07.674Z,102146.77
2023-02-13T08:49:10.566Z,102146.27
2023-02-13T08:50:13.402Z,102147.30
2023-02-13T08:51:16.286Z,102142.98
2023-02-13T08:52:19.158Z,102139.94
2023-02-13T08:53:23.352Z,102144.06
2023-02-13T08:54:26.318Z,102141.62
2023-02-13T08:55:31.559Z,102141.20
2023-02-13T08:56:35.184Z,102139.80
2023-02-13T08:57:38.094Z,102136.59
2023-02-13T08:58:40.967Z,102139.73
2023-02-13T08:59:44.323Z,102139.55
2023-02-13T09:00:47.655Z,102134.39
2023-02-13T09:01:50.637Z,102136.75
2023-02-13T09:02:53.625Z,102135.96
2023-02-13T09:03:56.593Z,102132.36
2023-02-13T09:04:59.470Z,102132.31
2023-02-13T09:06:03.748Z,102130.75
2023-02-13T09:07:06.907Z,102126.25
2023-02-13T09:08:11.940Z,102129.73
2023-02-13T09:09:16.112Z,102127.55
2023-02-13T09:10:19.179Z,102130.85
2023-02-13T09:11:23.617Z,102129.41
2023-02-13T09:12:26.599Z,102131.30
2023-02-13T09:13:34.585Z,102124.36
2023-02-13T09:14:39.396Z,102137.56
2023-02-13T09:15:43.108Z,102136.46
2023-02-13T09:16:45.988Z,102134.61
2023-02-13T09:17:48.949Z,102133.76
2023-02-13T09:18:52.768Z,102134.80
2023-02-13T09:19:55.767Z,102132.07
2023-02-13T09:21:04.726Z,102134.46
2023-02-13T09:22:07.610Z,102131.02
2023-02-13T09:23:10.546Z,102135.33
2023-02-13T09:24:13.464Z,102132.95
2023-02-13T09:25:16.407Z,102136.20
2023-02-13T09:26:20.634Z,102137.33
2023-02-13T09:27:23.718Z,102137.41
2023-02-13T09:28:26.754Z,102139.20
2023-02-13T09:29:31.835Z,102141.71
2023-02-13T09:30:34.774Z,102145.42
2023-02-13T09:31:37.802Z,102140.77
2023-02-13T09:32:41.655Z,102143.29
2023-02-13T09:33:46.204Z,102138.64
2023-02-13T09:34:49.159Z,102141.55
2023-02-13T09:35:52.226Z,102141.73
2023-02-13T09:36:55.439Z,102142.58
2023-02-13T09:38:00.739Z,102144.17
2023-02-13T09:39:04.334Z,102146.95
2023-02-13T09:40:29.160Z,102147.98
2023-02-13T09:41:42.496Z,102143.05
2023-02-13T09:42:46.563Z,102136.48
2023-02-13T09:43:59.379Z,102135.80
2023-02-13T09:45:06.428Z,102132.27
2023-02-13T09:46:19.201Z,102133.70
2023-02-13T09:47:31.413Z,102132.19
2023-02-13T09:48:38.411Z,102126.69
2023-02-13T09:49:49.669Z,102127.77
2023-02-13T09:50:52.766Z,102128.83
2023-02-13T09:51:57.757Z,102129.92
2023-02-13T09:53:02.280Z,102128.61
2023-02-13T09:54:07.540Z,102128.45
2023-02-13T09:55:38.272Z,102132.97
2023-02-13T09:56:55.360Z,102132.20
2023-02-13T09:58:36.584Z,102130.90
2023-02-13T09:59:58.122Z,102130.79
2023-02-13T10:01:04.646Z,102126.90
2023-02-13T10:02:32.248Z,102132.90
2023-02-13T10:03:43.932Z,102134.56
2023-02-13T10:04:50.950Z,102133.78
2023-02-13T10:06:15.623Z,102133.93
2023-02-13T10:07:35.864Z,102129.42
2023-02-13T10:08:57.237Z,102129.36
2023-02-13T10:10:20.194Z,102128.46
2023-02-13T10:11:51.068Z,102132.28
2023-02-13T10:13:23.711Z,102140.00
2023-02-13T10:14:35.689Z,102143.36
2023-02-13T10:15:52.054Z,102148.52
2023-02-13T10:17:32.047Z,102149.94
2023-02-13T10:18:53.657Z,102156.73
2023-02-13T10:20:08.835Z,102157.98
2023-02-13T10:21:14.067Z,102155.38
2023-02-13T10:22:34.160Z,102156.73
2023-02-13T10:23:44.686Z,102156.33
2023-02-13T10:25:09.216Z,102155.08
2023-02-13T10:26:17.767Z,102152.82
2023-02-13T10:27:23.978Z,102153.64
2023-02-13T10:28:42.549Z,102154.60
2023-02-13T10:30:07.122Z,102152.99
2023-02-13T10:31:17.895Z,102152.67
2023-02-13T10:32:25.829Z,102149.70
2023-02-13T10:33:34.948Z,102151.40
2023-02-13T10:34:44.947Z,102150.10
2023-02-13T10:36:15.263Z,102145.73
2023-02-13T10:37:21.846Z,102144.33
2023-02-13T10:38:25.656Z,102144.09
2023-02-13T10:39:31.120Z,102137.63
2023-02-13T10:40:40.560Z,102140.09
2023-02-13T10:41:52.786Z,102135.58
2023-02-13T10:43:10.202Z,102136.88
2023-02-13T10:44:34.432Z,102134.72
2023-02-13T10:45:43.196Z,102131.98
2023-02-13T10:47:11.857Z,102127.66
2023-02-13T10:48:35.864Z,102124.59
2023-02-13T10:49:57.241Z,102123.98
2023-02-13T10:51:36.069Z,102123.47
2023-02-13T10:52:50.367Z,102127.53
2023-02-13T10:54:18.130Z,102128.80
2023-02-13T10:55:23.792Z,102126.63
2023-02-13T10:56:44.358Z,102124.51
2023-02-13T10:58:08.676Z,102117.48
2023-02-13T10:59:39.046Z,102115.63
2023-02-13T11:00:56.224Z,102115.85
2023-02-13T11:02:20.730Z,102115.89
2023-02-13T11:03:27.130Z,102105.20
2023-02-13T11:04:30.237Z,102107.51
2023-02-13T11:05:43.397Z,102107.84
2023-02-13T11:06:54.896Z,102109.71
2023-02-13T11:07:58.038Z,102109.33
2023-02-13T11:09:00.899Z,102112.30
2023-02-13T11:10:29.598Z,102109.77
2023-02-13T11:11:33.912Z,102108.25
2023-02-13T11:12:36.911Z,102104.53
2023-02-13T11:13:40.864Z,102106.80
2023-02-13T11:14:55.990Z,102109.54
2023-02-13T11:16:17.190Z,102107.52
2023-02-13T11:17:20.210Z,102109.81
2023-02-13T11:18:26.506Z,102107.07
2023-02-13T11:19:34.524Z,102110.04
2023-02-13T11:20:44.633Z,102105.72
2023-02-13T11:21:50.106Z,102107.34
2023-02-13T11:22:53.296Z,102104.27
2023-02-13T11:23:58.872Z,102104.72
2023-02-13T11:25:30.237Z,102104.67
2023-02-13T11:26:36.081Z,102101.08
2023-02-13T11:27:40.392Z,102103.60
2023-02-13T11:29:02.139Z,102107.24
2023-02-13T11:30:33.580Z,102100.80
2023-02-13T11:31:38.297Z,102107.02
2023-02-13T11:32:41.221Z,102108.82
2023-02-13T11:33:44.100Z,102103.80
2023-02-13T11:34:50.568Z,102101.42
2023-02-13T11:36:09.420Z,102095.41
2023-02-13T11:37:12.276Z,102092.59
2023-02-13T11:38:20.929Z,102092.49
2023-02-13T11:39:26.792Z,102089.14
2023-02-13T11:40:32.447Z,102089.61
2023-02-13T11:41:43.980Z,102087.91
2023-02-13T11:42:50.105Z,102093.86
2023-02-13T11:44:02.327Z,102096.98
2023-02-13T11:45:20.565Z,102091.55
2023-02-13T11:46:26.751Z,102092.14
2023-02-13T11:47:36.154Z,102088.62
2023-02-13T11:48:39.110Z,102087.09
2023-02-13T11:49:47.380Z,102085.16
2023-02-13T11:50:56.186Z,102080.17
2023-02-13T11:52:05.390Z,102077.23
2023-02-13T11:53:22.804Z,102075.46
2023-02-13T11:54:28.426Z,102081.02
2023-02-13T11:55:34.861Z,102077.70
2023-02-13T11:57:06.365Z,102079.01
2023-02-13T11:58:12.482Z,102078.80
2023-02-13T11:59:16.238Z,102077.21
2023-02-13T12:00:32.473Z,102080.66
2023-02-13T12:01:35.335Z,102078.94
2023-02-13T12:02:48.445Z,102076.27
2023-02-13T12:04:19.202Z,102077.23
2023-02-13T12:05:24.671Z,102065.16
2023-02-13T12:06:27.588Z,102067.21
2023-02-13T12:07:32.499Z,102067.27
2023-02-13T12:08:37.799Z,102065.39
2023-02-13T12:09:42.100Z,102064.29
2023-02-13T12:10:45.584Z,102064.73
2023-02-13T12:11:53.929Z,102060.50
2023-02-13T12:13:15.722Z,102053.09
2023-02-13T12:14:26.450Z,102055.71
2023-02-13T12:15:33.049Z,102055.37
2023-02-13T12:16:44.039Z,102057.77
2023-02-13T12:17:57.201Z,102054.33
2023-02-13T12:19:06.319Z,102056.77
2023-02-13T12:20:16.066Z,102052.86
2023-02-13T12:21:44.784Z,102043.98
2023-02-13T12:23:10.765Z,102035.73
2023-02-13T12:24:19.953Z,102035.08
2023-02-13T12:25:27.174Z,102033.06
2023-02-13T12:26:37.180Z,102029.77
2023-02-13T12:27:50.617Z,102035.08
2023-02-13T12:29:08.257Z,102034.41
2023-02-13T12:30:42.815Z,102034.49
2023-02-13T12:32:05.213Z,102037.42
2023-02-13T12:33:41.919Z,102038.28
2023-02-13T12:35:19.848Z,102032.05
2023-02-13T12:36:40.280Z,102034.64
2023-02-13T12:38:12.976Z,102030.23
2023-02-13T12:39:26.506Z,102034.64
2023-02-13T12:40:48.338Z,102040.35
2023-02-13T12:42:48.110Z,102041.20
2023-02-13T12:44:21.259Z,102041.54
2023-02-13T12:45:41.498Z,102040.95
2023-02-13T12:46:50.322Z,102040.70
2023-02-13T12:48:11.639Z,102036.79
2023-02-13T12:49:32.512Z,102030.86
2023-02-13T12:50:51.475Z,102027.60
2023-02-13T12:52:16.277Z,102022.52
2023-02-13T12:53:32.090Z,102018.08
2023-02-13T12:54:35.352Z,102020.60
2023-02-13T12:56:18.910Z,102024.70
2023-02-13T12:57:37.560Z,102025.45
2023-02-13T12:59:31.684Z,102021.25
2023-02-13T13:00:37.667Z,102016.20
2023-02-13T13:02:03.595Z,102013.40
2023-02-13T13:03:28.041Z,102010.40
2023-02-13T13:04:49.155Z,102002.00
2023-02-13T13:06:10.883Z,101999.02
2023-02-13T13:07:41.718Z,101997.72